Página principal
METAR-TAF:

METAR-TAF

Aeroportos :

Aeroporto de Berlim-Tegel

Berlin, Alemanha

latitude: 52-34N, longitude: 013-19E, altura: 37 m

Observação actual do tempo

O boletim foi feito há 29 minutos, às 10:20 UTC
Vento 5 kt de este, variando entre es-nordeste e sul
Temperatura 26°C
Humidade 39%
Pressão 1027 hPa
Visibilidade 10 km ou mais
sem nuvens abaixo de 1500 metros e sem cumulonimbus

METAR: EDDT 231020Z 10005KT 060V170 CAVOK 26/11 Q1027 NOSIG

Hora: 12:49 (10:49 UTC)

Previsão

O boletim foi feito há 5 horas e 49 minutos, às 05:00 UTC
Previsão válida de 23 às 06 UTC a 24 às 06 UTC
Vento 4 kt de es-sudeste
Visibilidade 10 km ou mais
sem nuvens abaixo de 1500 metros e sem cumulonimbus

TAF: EDDT 230500Z 2306/2406 11004KT CAVOK

Observações e previsões do tempo de mais de 4000 aeroportos (mensagens METAR e TAF).

As estações disponíveis são os pontos amarelos e vermelhos sobre o mapa.

Mova o rato sobre o mapa para ver o nome da estação.

Depois clique no ponto para visualizar as observações e previsões meteorológicas.

Para alterar o mapa : clique nos botões verdes com uma cruz preta para aumentar o zoom; no botão verde com uma pitada de zoom; ou nas setas verdes para mapas adjacentes.


METAR-TAF: